Terminal Aerodrome Forecast
Issued by NWS

Home | Current Version | Previous Version | Text Only | Print | Product List | Glossary Off
Versions: 1 2 3 4 5 6 7 8 9 10 11 12 13 14

000
FTUS43 KFGF 212300
TAFBJI
TAF
KBJI 212333Z 2200/2224 15010KT P6SM OVC007
     FM220300 12008KT 4SM BR OVC004
     FM221200 11006KT 2SM BR OVC003=

USA.gov is the U.S. government's official web portal to all federal, state and local government web resources and services.